Time;durP1;ratioP1;P1;durP2;ratioP2;P2;SDS_P1;SDS_P2;PMS_P1;PMS_P2;Temp;Humidity;BMP_temperature;BMP_pressure;BME280_temperature;BME280_humidity;BME280_pressure;Samples;Min_cycle;Max_cycle;Signal;HPM_P1;HPM_P2
2023/12/07 00:00:44;;;;;;;;;35.25;28.75;;;;;11.65;100.00;101321.69;2087791;28;46806;-52
2023/12/07 00:01:44;;;;;;;;;28.00;27.25;;;;;11.82;100.00;101318.81;2087160;28;46659;-53
2023/12/07 00:02:45;;;;;;;;;30.75;28.00;;;;;11.83;100.00;101317.91;2086061;28;46582;-51
2023/12/07 00:03:45;;;;;;;;;34.00;32.00;;;;;11.74;100.00;101321.56;2087631;28;46550;-55
2023/12/07 00:04:45;;;;;;;;;26.75;26.50;;;;;11.76;100.00;101318.88;2087594;28;45853;-52
2023/12/07 00:05:46;;;;;;;;;36.00;33.25;;;;;11.78;100.00;101314.41;2087378;28;46972;-51
2023/12/07 00:06:46;;;;;;;;;37.00;31.75;;;;;11.17;100.00;101326.00;2087611;28;46208;-54
2023/12/07 00:07:46;;;;;;;;;30.75;29.75;;;;;11.70;100.00;101316.34;2087563;28;46806;-55
2023/12/07 00:08:47;;;;;;;;;35.25;29.50;;;;;11.67;100.00;101314.56;2087642;28;46184;-54
2023/12/07 00:09:47;;;;;;;;;32.75;31.25;;;;;11.67;100.00;101317.25;2087381;28;46658;-52
2023/12/07 00:10:47;;;;;;;;;34.00;29.00;;;;;11.66;100.00;101318.13;2086709;28;46773;-55
2023/12/07 00:11:47;;;;;;;;;30.50;28.75;;;;;11.68;100.00;101320.78;2080197;28;46687;-51
2023/12/07 00:12:48;;;;;;;;;32.75;29.25;;;;;11.71;100.00;101318.97;2087715;28;46499;-55
2023/12/07 00:13:48;;;;;;;;;28.00;24.50;;;;;11.70;100.00;101321.66;2087603;28;46361;-53
2023/12/07 00:14:48;;;;;;;;;31.75;28.50;;;;;11.71;100.00;101312.78;2069983;28;46582;-53
2023/12/07 00:15:49;;;;;;;;;32.00;31.25;;;;;11.66;100.00;101310.16;2070525;28;47693;-51
2023/12/07 00:16:49;;;;;;;;;37.25;32.50;;;;;11.46;100.00;101312.28;2081185;28;46954;-56
2023/12/07 00:17:49;;;;;;;;;27.75;25.25;;;;;11.58;100.00;101306.78;2087879;28;46831;-55
2023/12/07 00:18:50;;;;;;;;;31.25;30.00;;;;;11.42;100.00;101319.41;2085420;28;45631;-55
2023/12/07 00:19:53;;;;;;;;;30.25;28.25;;;;;11.68;100.00;101308.34;2087591;28;46161;-52
2023/12/07 00:20:54;;;;;;;;;31.00;29.40;;;;;11.71;100.00;101312.78;2089024;28;46500;-52
2023/12/07 00:21:54;;;;;;;;;26.75;24.75;;;;;11.76;100.00;101308.25;2089175;28;46496;-50
2023/12/07 00:22:55;;;;;;;;;35.00;30.50;;;;;11.75;100.00;101301.16;2089328;28;46820;-50
2023/12/07 00:23:55;;;;;;;;;32.80;30.20;;;;;11.75;100.00;101303.81;2079155;28;46489;-53
2023/12/07 00:24:56;;;;;;;;;26.50;24.50;;;;;11.72;100.00;101295.91;2063074;28;46394;-53
2023/12/07 00:25:56;;;;;;;;;29.75;26.75;;;;;11.72;100.00;101290.59;2080011;28;46846;-55
2023/12/07 00:26:56;;;;;;;;;31.50;27.75;;;;;11.70;100.00;101295.06;2088749;28;46492;-51
2023/12/07 00:27:57;;;;;;;;;31.00;28.00;;;;;11.68;100.00;101289.75;2089317;28;46958;-54
2023/12/07 00:28:57;;;;;;;;;27.50;26.50;;;;;11.25;100.00;101281.59;2088728;28;46604;-53
2023/12/07 00:29:57;;;;;;;;;33.00;29.00;;;;;11.36;100.00;101290.28;2088304;28;46793;-51
2023/12/07 00:30:58;;;;;;;;;28.50;26.50;;;;;11.47;100.00;101287.47;2088477;28;46920;-54
2023/12/07 00:31:58;;;;;;;;;11.25;9.25;;;;;11.58;100.00;101287.28;2089285;28;45551;-54
2023/12/07 00:32:59;;;;;;;;;28.50;27.00;;;;;11.60;100.00;101285.47;2088770;28;46288;-56
2023/12/07 00:33:59;;;;;;;;;26.50;25.00;;;;;11.55;100.00;101285.53;2089062;28;46767;-53
2023/12/07 00:34:59;;;;;;;;;31.50;27.50;;;;;11.53;100.00;101273.19;2087179;28;46651;-53
2023/12/07 00:36:00;;;;;;;;;28.00;26.75;;;;;11.55;100.00;101277.56;2089115;28;46526;-52
2023/12/07 00:37:00;;;;;;;;;32.00;29.25;;;;;11.56;100.00;101270.47;2088191;28;46196;-54
2023/12/07 00:38:00;;;;;;;;;26.00;24.75;;;;;11.59;100.00;101268.66;2088414;28;46402;-53
2023/12/07 00:39:01;;;;;;;;;32.25;28.50;;;;;11.54;100.00;101256.31;2088919;28;45843;-53
2023/12/07 00:40:01;;;;;;;;;31.75;26.00;;;;;11.58;100.00;101266.91;2089019;28;46611;-55
2023/12/07 00:41:02;;;;;;;;;29.00;25.50;;;;;11.60;100.00;101258.91;2088852;28;46295;-51
2023/12/07 00:42:03;;;;;;;;;25.50;25.00;;;;;11.62;100.00;101270.38;2089429;28;45520;-54
2023/12/07 00:43:03;;;;;;;;;31.50;28.50;;;;;11.54;100.00;101267.84;2088740;28;46188;-47
2023/12/07 00:44:03;;;;;;;;;28.50;28.50;;;;;11.54;100.00;101266.97;2089337;28;45446;-51
2023/12/07 00:45:04;;;;;;;;;34.50;30.25;;;;;11.53;100.00;101275.84;2088696;28;46846;-52
2023/12/07 00:46:07;;;;;;;;;34.50;32.00;;;;;11.53;100.00;101281.16;2088629;28;46364;-55
2023/12/07 00:47:07;;;;;;;;;34.40;27.80;;;;;11.53;100.00;101271.41;2088989;28;46651;-53
2023/12/07 00:48:08;;;;;;;;;29.25;27.50;;;;;11.58;100.00;101274.00;2079280;28;46025;-52
2023/12/07 00:49:08;;;;;;;;;29.00;27.50;;;;;11.42;100.00;101278.66;2079342;28;46295;-52
2023/12/07 00:50:12;;;;;;;;;28.25;24.75;;;;;11.55;100.00;101279.34;2084761;28;46521;-49
2023/12/07 00:51:12;;;;;;;;;26.20;24.40;;;;;11.54;100.00;101281.13;2088847;28;46689;-54
2023/12/07 00:52:12;;;;;;;;;28.00;27.50;;;;;11.54;100.00;101273.16;2088365;28;46549;-52
2023/12/07 00:53:13;;;;;;;;;31.25;29.25;;;;;11.56;100.00;101278.44;2087556;28;46939;-50
2023/12/07 00:54:13;;;;;;;;;29.75;27.75;;;;;11.50;100.00;101285.63;2089114;28;46313;-52
2023/12/07 00:55:14;;;;;;;;;29.00;28.25;;;;;11.49;100.00;101280.34;2089227;28;46901;-52
2023/12/07 00:56:14;;;;;;;;;31.50;27.75;;;;;11.46;100.00;101273.28;2089229;28;46472;-51
2023/12/07 00:57:14;;;;;;;;;28.75;26.75;;;;;11.56;100.00;101278.44;2089231;28;46631;-52
2023/12/07 00:58:15;;;;;;;;;26.75;24.75;;;;;11.61;100.00;101281.91;2088733;28;46603;-52
2023/12/07 00:59:15;;;;;;;;;29.50;28.00;;;;;11.60;100.00;101283.69;2088549;28;46336;-51
2023/12/07 01:00:15;;;;;;;;;35.25;30.75;;;;;11.59;100.00;101286.38;2089009;28;46510;-48
2023/12/07 01:01:16;;;;;;;;;27.50;26.25;;;;;11.63;100.00;101288.09;2088698;28;46998;-54
2023/12/07 01:02:16;;;;;;;;;34.25;30.25;;;;;11.62;100.00;101284.53;2088573;28;47178;-51
2023/12/07 01:03:16;;;;;;;;;31.00;28.75;;;;;11.57;100.00;101283.75;2088577;28;46629;-53
2023/12/07 01:04:17;;;;;;;;;39.25;34.25;;;;;11.55;100.00;101285.53;2086525;28;47003;-52
2023/12/07 01:05:18;;;;;;;;;32.20;29.80;;;;;11.50;100.00;101282.97;2088714;28;47249;-53
2023/12/07 01:06:18;;;;;;;;;36.25;33.00;;;;;11.50;100.00;101280.31;2088800;28;47172;-51
2023/12/07 01:07:18;;;;;;;;;32.50;30.75;;;;;11.47;100.00;101276.84;2088535;28;46591;-53
2023/12/07 01:08:19;;;;;;;;;30.50;29.50;;;;;11.47;100.00;101283.03;2088843;28;46730;-54
2023/12/07 01:09:19;;;;;;;;;35.75;32.25;;;;;11.47;100.00;101282.16;2088586;28;46335;-55
2023/12/07 01:10:19;;;;;;;;;42.00;36.50;;;;;11.45;100.00;101282.19;2087491;28;46276;-52
2023/12/07 01:11:19;;;;;;;;;33.50;29.25;;;;;11.50;100.00;101282.97;2089277;28;46845;-54
2023/12/07 01:12:20;;;;;;;;;35.00;32.50;;;;;11.47;100.00;101288.34;2096841;28;46733;-53
2023/12/07 01:13:20;;;;;;;;;33.50;29.50;;;;;11.43;100.00;101283.06;2097047;28;46600;-53
2023/12/07 01:14:20;;;;;;;;;38.75;34.75;;;;;11.39;100.00;101282.25;2084010;28;46040;-54
2023/12/07 01:15:21;;;;;;;;;34.75;33.00;;;;;11.39;100.00;101282.25;2089263;28;46364;-52
2023/12/07 01:16:21;;;;;;;;;42.25;35.25;;;;;11.42;100.00;101281.31;2089188;28;46254;-56
2023/12/07 01:17:21;;;;;;;;;36.50;33.25;;;;;11.39;100.00;101279.59;2089286;28;46647;-56
2023/12/07 01:18:22;;;;;;;;;38.00;34.50;;;;;11.32;100.00;101285.94;2088885;28;46188;-50
2023/12/07 01:19:22;;;;;;;;;38.00;34.00;;;;;11.29;100.00;101288.63;2088587;28;46511;-54
2023/12/07 01:20:22;;;;;;;;;43.25;37.25;;;;;11.40;100.00;101285.78;2088519;28;46182;-54
2023/12/07 01:21:23;;;;;;;;;37.50;33.00;;;;;11.38;100.00;101299.09;2088221;28;46201;-52
2023/12/07 01:22:23;;;;;;;;;36.75;33.00;;;;;11.42;100.00;101299.94;2088356;28;46601;-49
2023/12/07 01:23:23;;;;;;;;;39.50;35.00;;;;;11.41;100.00;101295.53;2083884;28;46451;-53
2023/12/07 01:24:24;;;;;;;;;37.25;32.50;;;;;11.40;100.00;101294.63;2088808;28;46526;-53
2023/12/07 01:25:25;;;;;;;;;36.50;34.00;;;;;11.40;100.00;101299.09;2088737;28;46521;-51
2023/12/07 01:26:25;;;;;;;;;41.75;34.50;;;;;11.39;100.00;101290.22;2089422;28;45543;-50
2023/12/07 01:27:25;;;;;;;;;32.25;29.75;;;;;11.46;100.00;101281.28;2086930;28;46369;-52
2023/12/07 01:28:26;;;;;;;;;36.25;32.75;;;;;11.49;100.00;101283.00;2088724;28;46343;-52
2023/12/07 01:29:26;;;;;;;;;38.75;35.00;;;;;11.50;100.00;101280.31;2096349;28;45947;-53
2023/12/07 01:30:27;;;;;;;;;33.75;31.50;;;;;11.52;100.00;101282.94;2096752;28;46684;-56
2023/12/07 01:31:27;;;;;;;;;40.00;33.75;;;;;11.46;100.00;101275.97;2070268;28;46366;-52
2023/12/07 01:32:27;;;;;;;;;38.75;34.00;;;;;11.47;100.00;101279.50;2070178;28;46734;-53
2023/12/07 01:33:27;;;;;;;;;36.50;34.50;;;;;11.45;100.00;101271.56;2088329;28;46516;-55
2023/12/07 01:34:28;;;;;;;;;39.75;33.50;;;;;11.48;100.00;101284.78;2088827;28;45600;-51
2023/12/07 01:35:28;;;;;;;;;26.75;26.00;;;;;11.50;100.00;101274.13;2088489;28;46516;-53
2023/12/07 01:36:29;;;;;;;;;43.75;36.00;;;;;11.50;100.00;101274.13;2088763;28;46404;-53
2023/12/07 01:37:30;;;;;;;;;32.50;32.25;;;;;11.52;100.00;101272.31;2088730;28;46288;-54
2023/12/07 01:38:30;;;;;;;;;35.80;29.20;;;;;11.53;100.00;101278.50;2089209;28;46758;-54
2023/12/07 01:39:31;;;;;;;;;40.50;34.75;;;;;11.49;100.00;101273.25;2088371;28;46386;-53
2023/12/07 01:40:31;;;;;;;;;36.50;33.50;;;;;11.47;100.00;101269.75;2088851;28;46185;-56
2023/12/07 01:41:31;;;;;;;;;38.25;32.25;;;;;11.47;100.00;101271.53;2088582;28;46402;-55
2023/12/07 01:42:31;;;;;;;;;40.00;33.00;;;;;11.50;100.00;101269.69;2088393;28;46800;-52
2023/12/07 01:43:32;;;;;;;;;40.00;35.50;;;;;11.47;100.00;101269.75;2088630;28;46214;-54
2023/12/07 01:44:32;;;;;;;;;35.50;31.50;;;;;11.52;100.00;101274.09;2087145;28;46293;-53
2023/12/07 01:45:33;;;;;;;;;29.00;27.75;;;;;11.49;100.00;101267.94;2089046;28;46749;-53
2023/12/07 01:46:33;;;;;;;;;34.50;31.00;;;;;11.50;100.00;101266.16;2088854;28;46551;-52
2023/12/07 01:47:36;;;;;;;;;37.75;32.75;;;;;11.43;100.00;101262.72;2088513;28;46764;-54
2023/12/07 01:48:36;;;;;;;;;34.60;32.00;;;;;11.43;100.00;101265.38;2088621;28;46767;-54
2023/12/07 01:49:37;;;;;;;;;27.50;25.75;;;;;11.44;100.00;101269.78;2088276;28;46244;-54
2023/12/07 01:50:37;;;;;;;;;31.50;28.75;;;;;11.47;100.00;101269.75;2088658;28;46266;-50
2023/12/07 01:51:38;;;;;;;;;33.75;30.50;;;;;11.49;100.00;101267.06;2086861;28;46427;-52
2023/12/07 01:52:45;;;;;;;;;36.75;29.75;;;;;11.46;100.00;101267.97;2087837;28;46620;-53
2023/12/07 01:53:47;;;;;;;;;34.00;29.40;;;;;11.40;100.00;101273.38;2088376;28;46934;-52
2023/12/07 01:54:48;;;;;;;;;36.80;32.20;;;;;11.42;100.00;101274.22;2088556;28;46888;-52
2023/12/07 01:55:50;;;;;;;;;35.25;33.50;;;;;11.49;100.00;101267.94;2088438;28;46881;-53
2023/12/07 01:56:51;;;;;;;;;33.60;31.00;;;;;11.48;100.00;101268.84;2088349;28;46532;-52
2023/12/07 01:57:52;;;;;;;;;32.20;30.80;;;;;11.44;100.00;101268.91;2088722;28;46967;-53
2023/12/07 01:58:53;;;;;;;;;30.50;29.00;;;;;11.41;100.00;101269.81;2088473;28;46674;-51
2023/12/07 01:59:54;;;;;;;;;29.25;25.25;;;;;11.39;100.00;101274.28;2088604;28;46461;-53
2023/12/07 02:00:55;;;;;;;;;27.25;26.25;;;;;11.41;100.00;101264.50;2088371;28;46397;-56
2023/12/07 02:01:55;;;;;;;;;27.80;26.20;;;;;11.40;100.00;101261.88;2087146;28;46308;-54
2023/12/07 02:02:56;;;;;;;;;29.00;26.00;;;;;11.36;100.00;101268.16;2088324;28;45893;-53
2023/12/07 02:03:56;;;;;;;;;34.50;30.25;;;;;11.38;100.00;101269.00;2088321;28;46679;-53
2023/12/07 02:04:56;;;;;;;;;31.50;30.75;;;;;11.36;100.00;101265.50;2088552;28;46933;-53
2023/12/07 02:05:58;;;;;;;;;33.00;30.00;;;;;11.35;100.00;101259.31;2088296;28;45970;-52
2023/12/07 02:07:01;;;;;;;;;31.60;30.60;;;;;11.14;100.00;101259.63;2088601;28;46839;-55
2023/12/07 02:08:01;;;;;;;;;29.60;25.20;;;;;11.31;100.00;101262.94;2088250;28;46487;-55
2023/12/07 02:09:01;;;;;;;;;33.50;31.75;;;;;11.33;100.00;101266.44;2088348;28;45098;-52
2023/12/07 02:10:03;;;;;;;;;25.75;25.75;;;;;11.29;100.00;101266.47;2088644;28;46384;-54
2023/12/07 02:11:03;;;;;;;;;32.20;26.40;;;;;11.32;100.00;101267.34;2088579;28;46913;-53
2023/12/07 02:12:04;;;;;;;;;33.75;30.00;;;;;11.32;100.00;101262.03;2089148;28;46725;-50
2023/12/07 02:13:05;;;;;;;;;28.50;28.50;;;;;11.33;100.00;101258.47;2085296;28;45654;-53
2023/12/07 02:14:06;;;;;;;;;32.20;28.60;;;;;11.30;100.00;101258.47;2088436;28;46994;-52
2023/12/07 02:15:08;;;;;;;;;27.25;24.00;;;;;11.27;100.00;101261.19;2088155;28;46233;-55
2023/12/07 02:16:23;;;;;;;;;32.60;27.80;;;;;11.26;100.00;101256.78;2088364;28;46652;-54
2023/12/07 02:17:26;;;;;;;;;36.80;31.20;;;;;11.24;100.00;101260.38;2086649;28;46709;-54
2023/12/07 02:18:44;;;;;;;;;32.60;29.60;;;;;11.28;100.00;101260.28;2088165;28;46702;-51
2023/12/07 02:19:44;;;;;;;;;30.40;29.40;;;;;11.28;100.00;101256.75;2088360;28;47117;-54
2023/12/07 02:21:09;;;;;;;;;30.25;28.00;;;;;11.29;100.00;101251.41;2088411;28;46355;-53
2023/12/07 02:22:18;;;;;;;;;39.00;32.80;;;;;11.21;100.00;101245.38;2096078;28;46720;-53
2023/12/07 02:23:18;;;;;;;;;32.40;29.40;;;;;11.24;100.00;101242.66;2092931;28;46069;-52
2023/12/07 02:24:21;;;;;;;;;31.75;29.75;;;;;11.20;100.00;101241.84;2088939;28;46529;-52
2023/12/07 02:25:51;;;;;;;;;30.80;29.40;;;;;11.22;100.00;101236.50;2088224;28;46831;-52
2023/12/07 02:26:51;;;;;;;;;31.00;27.80;;;;;11.24;100.00;101236.47;2062488;28;46750;-51
2023/12/07 02:27:52;;;;;;;;;31.75;29.00;;;;;11.23;100.00;101232.06;2054037;28;45625;-52
2023/12/07 02:28:52;;;;;;;;;30.25;28.75;;;;;11.25;100.00;101230.25;2054711;28;45858;-54
2023/12/07 02:29:52;;;;;;;;;35.00;32.25;;;;;10.32;100.00;101243.09;2062899;28;46239;-55
2023/12/07 02:30:53;;;;;;;;;34.25;32.75;;;;;10.17;100.00;101240.59;2062884;28;46819;-54
2023/12/07 02:31:53;;;;;;;;;31.50;30.00;;;;;10.05;100.00;101246.91;2062698;28;46475;-54
2023/12/07 02:32:54;;;;;;;;;32.25;30.50;;;;;10.00;100.00;101243.41;2062537;28;46487;-54
2023/12/07 02:33:54;;;;;;;;;32.75;30.75;;;;;9.97;100.00;101232.84;2062804;28;46774;-51
2023/12/07 02:34:55;;;;;;;;;34.25;32.50;;;;;9.94;100.00;101236.41;2062654;28;46638;-53
2023/12/07 02:35:55;;;;;;;;;28.00;27.75;;;;;9.93;100.00;101239.09;2061174;28;46725;-53
2023/12/07 02:36:59;;;;;;;;;33.00;31.50;;;;;9.92;100.00;101237.31;2062797;28;46567;-54
2023/12/07 02:38:01;;;;;;;;;33.40;30.20;;;;;9.91;100.00;101233.81;2062818;28;46528;-55
2023/12/07 02:39:03;;;;;;;;;35.80;30.60;;;;;9.92;100.00;101237.31;2062698;28;47017;-54
2023/12/07 02:40:09;;;;;;;;;30.00;27.40;;;;;9.93;100.00;101245.25;2062345;28;46750;-53
2023/12/07 02:41:11;;;;;;;;;31.20;29.00;;;;;9.91;100.00;101240.84;2062559;28;46715;-53
2023/12/07 02:42:14;;;;;;;;;28.40;25.80;;;;;9.89;100.00;101243.50;2054598;28;46330;-54
2023/12/07 02:43:15;;;;;;;;;34.00;29.20;;;;;9.89;100.00;101243.50;2054044;28;46516;-54
2023/12/07 02:44:15;;;;;;;;;30.60;26.60;;;;;9.87;100.00;101234.69;2055758;28;46073;-51
2023/12/07 02:45:16;;;;;;;;;35.50;29.25;;;;;9.90;100.00;101228.47;2062545;28;46617;-52
2023/12/07 02:46:16;;;;;;;;;29.75;26.75;;;;;9.91;100.00;101227.59;2053637;28;46304;-53
2023/12/07 02:47:16;;;;;;;;;30.50;28.75;;;;;10.02;100.00;101242.47;2054186;28;46727;-52
2023/12/07 02:48:17;;;;;;;;;27.50;27.25;;;;;10.06;100.00;101231.88;2062757;28;46529;-53
2023/12/07 02:49:18;;;;;;;;;28.75;28.75;;;;;10.06;100.00;101239.81;2062650;28;46096;-53
2023/12/07 02:50:18;;;;;;;;;29.50;29.50;;;;;10.09;100.00;101248.63;2062300;28;46185;-52
2023/12/07 02:51:18;;;;;;;;;33.25;30.00;;;;;10.09;100.00;101248.63;2062468;28;46373;-52
2023/12/07 02:52:19;;;;;;;;;32.00;30.50;;;;;10.11;100.00;101248.59;2053569;28;46675;-51
2023/12/07 02:53:19;;;;;;;;;28.50;26.75;;;;;10.11;100.00;101244.16;2052903;28;46649;-49
2023/12/07 02:54:19;;;;;;;;;23.25;22.50;;;;;10.12;100.00;101255.66;2063060;28;46638;-52
2023/12/07 02:55:20;;;;;;;;;33.25;28.50;;;;;10.13;100.00;101249.44;2062660;28;46461;-51
2023/12/07 02:56:20;;;;;;;;;31.75;28.00;;;;;10.12;100.00;101245.91;2062556;28;46405;-54
2023/12/07 02:57:20;;;;;;;;;31.00;29.50;;;;;10.12;100.00;101253.88;2062312;28;46265;-52
2023/12/07 02:58:21;;;;;;;;;25.00;24.50;;;;;10.13;100.00;101249.44;2062796;28;46719;-54
2023/12/07 02:59:21;;;;;;;;;29.00;28.50;;;;;10.14;100.00;101246.78;2062504;28;46582;-52
2023/12/07 03:00:21;;;;;;;;;24.00;24.00;;;;;10.15;100.00;101251.19;2062776;28;46266;-55
2023/12/07 03:01:22;;;;;;;;;27.25;27.00;;;;;10.16;100.00;101249.41;2062559;28;46823;-54
2023/12/07 03:02:22;;;;;;;;;33.00;30.00;;;;;10.15;100.00;101255.63;2062496;28;46384;-53
2023/12/07 03:03:22;;;;;;;;;26.50;26.25;;;;;10.17;100.00;101259.16;2062600;28;46356;-54
2023/12/07 03:04:23;;;;;;;;;24.00;23.75;;;;;10.15;100.00;101261.78;2075415;28;46342;-54
2023/12/07 03:05:23;;;;;;;;;25.25;24.25;;;;;10.16;100.00;101266.19;2086850;28;46305;-54
2023/12/07 03:06:23;;;;;;;;;26.50;26.00;;;;;10.14;100.00;101269.78;2087986;28;45547;-52
2023/12/07 03:07:24;;;;;;;;;31.25;26.75;;;;;10.12;100.00;101264.47;2088095;28;46796;-51
2023/12/07 03:08:24;;;;;;;;;28.75;26.50;;;;;10.14;100.00;101272.41;2082438;28;46525;-54
2023/12/07 03:09:24;;;;;;;;;24.00;22.00;;;;;10.14;100.00;101272.41;2087522;28;46235;-54
2023/12/07 03:10:25;;;;;;;;;22.50;20.75;;;;;10.15;100.00;101276.81;2088137;28;46413;-54
2023/12/07 03:11:25;;;;;;;;;32.00;28.75;;;;;10.17;100.00;101267.97;2087813;28;46648;-55
2023/12/07 03:12:25;;;;;;;;;29.75;27.25;;;;;10.16;100.00;101263.53;2088081;28;46231;-55
2023/12/07 03:13:26;;;;;;;;;26.00;24.25;;;;;10.15;100.00;101255.63;2088122;28;46412;-53
2023/12/07 03:14:26;;;;;;;;;25.00;24.50;;;;;10.13;100.00;101252.97;2088284;28;46358;-55
2023/12/07 03:15:26;;;;;;;;;22.50;22.50;;;;;10.14;100.00;101240.59;2087707;28;46128;-53
2023/12/07 03:16:27;;;;;;;;;28.75;24.75;;;;;10.14;100.00;101225.56;2087821;28;46326;-52
2023/12/07 03:17:27;;;;;;;;;27.25;22.75;;;;;10.14;100.00;101212.31;2088304;28;46251;-54
2023/12/07 03:18:27;;;;;;;;;25.25;24.00;;;;;10.14;100.00;101195.50;2088104;28;46235;-51
2023/12/07 03:19:28;;;;;;;;;30.75;28.50;;;;;10.14;100.00;101187.56;2088181;28;46905;-54
2023/12/07 03:20:28;;;;;;;;;26.25;24.50;;;;;10.15;100.00;101184.00;2087980;28;46361;-52
2023/12/07 03:21:28;;;;;;;;;27.50;24.50;;;;;10.13;100.00;101178.72;2087579;28;46654;-55
2023/12/07 03:22:28;;;;;;;;;23.75;23.75;;;;;10.12;100.00;101169.00;2088245;28;46318;-51
2023/12/07 03:23:29;;;;;;;;;28.75;27.50;;;;;10.13;100.00;101168.13;2087801;28;47029;-53
2023/12/07 03:24:29;;;;;;;;;26.00;23.50;;;;;10.13;100.00;101161.94;2087043;28;46575;-53
2023/12/07 03:25:29;;;;;;;;;28.75;25.50;;;;;10.13;100.00;101159.28;2087915;28;46400;-54
2023/12/07 03:26:30;;;;;;;;;25.75;22.75;;;;;10.13;100.00;101156.63;2088016;28;46801;-53
2023/12/07 03:27:30;;;;;;;;;27.25;24.75;;;;;10.11;100.00;101146.03;2088154;28;46211;-54
2023/12/07 03:28:31;;;;;;;;;23.75;22.75;;;;;10.11;100.00;101143.41;2087987;28;47236;-54
2023/12/07 03:29:32;;;;;;;;;25.25;24.00;;;;;10.13;100.00;101138.06;2087983;28;46561;-50
2023/12/07 03:30:32;;;;;;;;;29.00;26.40;;;;;10.11;100.00;101137.22;2088019;28;46462;-54
2023/12/07 03:31:33;;;;;;;;;21.25;20.75;;;;;10.10;100.00;101146.06;2088081;28;46685;-53
2023/12/07 03:32:33;;;;;;;;;21.25;21.25;;;;;10.09;100.00;101147.84;2086893;28;45936;-53
2023/12/07 03:33:33;;;;;;;;;23.25;22.25;;;;;10.06;100.00;101150.53;2086498;28;46432;-48
2023/12/07 03:34:34;;;;;;;;;25.50;24.25;;;;;10.08;100.00;101148.75;2088164;28;46283;-53
2023/12/07 03:35:34;;;;;;;;;25.50;21.75;;;;;10.09;100.00;101158.44;2088105;28;46644;-54
2023/12/07 03:36:34;;;;;;;;;20.00;20.00;;;;;10.09;100.00;101158.44;2086795;28;46597;-54
2023/12/07 03:37:35;;;;;;;;;29.25;23.00;;;;;10.09;100.00;101158.44;2087979;28;47093;-52
2023/12/07 03:38:35;;;;;;;;;27.50;24.00;;;;;10.08;100.00;101177.03;2088083;28;47006;-53
2023/12/07 03:39:36;;;;;;;;;23.50;23.00;;;;;10.08;100.00;101180.56;2093355;28;46508;-50
2023/12/07 03:40:36;;;;;;;;;25.75;23.25;;;;;10.06;100.00;101185.00;2094092;28;46595;-52
2023/12/07 03:41:36;;;;;;;;;23.50;22.50;;;;;10.05;100.00;101183.25;2087689;28;46528;-53
2023/12/07 03:42:36;;;;;;;;;23.75;22.50;;;;;10.06;100.00;101194.75;2087633;28;46722;-54
2023/12/07 03:43:37;;;;;;;;;22.50;20.75;;;;;10.07;100.00;101196.50;2088506;28;46458;-52
2023/12/07 03:44:37;;;;;;;;;23.25;23.25;;;;;10.05;100.00;101196.53;2087796;28;46468;-49
2023/12/07 03:45:37;;;;;;;;;17.50;15.50;;;;;10.05;100.00;101195.66;2087635;28;46683;-53
2023/12/07 03:46:38;;;;;;;;;21.75;20.75;;;;;10.04;100.00;101186.81;2077906;28;46628;-51
2023/12/07 03:47:38;;;;;;;;;24.50;22.00;;;;;10.03;100.00;101179.72;2078868;28;46555;-52
2023/12/07 03:48:38;;;;;;;;;27.25;21.00;;;;;10.02;100.00;101176.19;2087514;28;46338;-54
2023/12/07 03:49:41;;;;;;;;;22.75;22.00;;;;;10.02;100.00;101176.19;2087946;28;46469;-49
2023/12/07 03:50:41;;;;;;;;;22.40;22.40;;;;;10.00;100.00;101178.00;2087788;28;46391;-53
2023/12/07 03:51:41;;;;;;;;;23.25;20.50;;;;;10.00;100.00;101180.66;2087734;28;46642;-52
2023/12/07 03:52:42;;;;;;;;;26.50;23.50;;;;;9.99;100.00;101167.41;2087615;28;46656;-54
2023/12/07 03:53:43;;;;;;;;;17.00;13.75;;;;;9.99;100.00;101173.59;2087766;28;46119;-53
2023/12/07 03:54:43;;;;;;;;;23.75;22.25;;;;;9.99;100.00;101172.72;2087802;28;46834;-54
2023/12/07 03:55:43;;;;;;;;;25.25;23.50;;;;;10.00;100.00;101174.47;2087438;28;46189;-55
2023/12/07 03:56:43;;;;;;;;;24.00;22.25;;;;;10.00;100.00;101175.34;2089691;28;45872;-51
2023/12/07 03:57:44;;;;;;;;;23.00;22.00;;;;;9.98;100.00;101171.84;2089421;28;46746;-51
2023/12/07 03:58:45;;;;;;;;;23.50;21.75;;;;;10.00;100.00;101171.81;2089490;28;46920;-49
2023/12/07 03:59:46;;;;;;;;;17.20;17.20;;;;;10.00;100.00;101167.38;2083041;28;46424;-53
2023/12/07 04:00:47;;;;;;;;;21.60;19.00;;;;;10.00;100.00;101167.38;2088098;28;46365;-53
2023/12/07 04:01:47;;;;;;;;;21.00;21.00;;;;;10.00;100.00;101155.91;2083022;28;46877;-54
2023/12/07 04:02:47;;;;;;;;;30.75;27.75;;;;;10.00;100.00;101159.44;2084464;28;46177;-52
2023/12/07 04:03:47;;;;;;;;;19.25;19.25;;;;;10.00;100.00;101148.81;2086234;28;46117;-50
2023/12/07 04:04:48;;;;;;;;;22.00;20.75;;;;;9.99;100.00;101147.06;2088838;28;46390;-52
2023/12/07 04:05:48;;;;;;;;;23.75;22.75;;;;;9.98;100.00;101153.28;2096789;28;46477;-49
2023/12/07 04:06:48;;;;;;;;;21.25;19.75;;;;;9.98;100.00;101157.69;2096839;28;46377;-51
2023/12/07 04:07:49;;;;;;;;;32.00;23.75;;;;;9.98;100.00;101157.69;2088590;28;46473;-53
2023/12/07 04:08:49;;;;;;;;;25.75;22.25;;;;;9.98;100.00;101160.34;2088847;28;46319;-51
2023/12/07 04:09:50;;;;;;;;;23.75;23.00;;;;;9.97;100.00;101159.47;2089054;28;46270;-54
2023/12/07 04:10:50;;;;;;;;;22.50;21.00;;;;;9.97;100.00;101154.19;2089139;28;46498;-49
2023/12/07 04:11:50;;;;;;;;;23.50;21.25;;;;;9.97;100.00;101158.59;2087855;28;46688;-53
2023/12/07 04:12:52;;;;;;;;;23.75;23.00;;;;;9.98;100.00;101147.09;2079096;28;46676;-51
2023/12/07 04:13:52;;;;;;;;;24.20;18.80;;;;;9.97;100.00;101156.81;2079463;28;46743;-51
2023/12/07 04:14:53;;;;;;;;;26.75;23.50;;;;;9.99;100.00;101152.38;2089616;28;46878;-54
2023/12/07 04:15:53;;;;;;;;;21.75;21.00;;;;;9.98;100.00;101155.06;2089006;28;46505;-50
2023/12/07 04:16:53;;;;;;;;;26.00;24.00;;;;;10.00;100.00;101158.56;2085953;28;46782;-48
2023/12/07 04:17:54;;;;;;;;;22.00;21.50;;;;;9.99;100.00;101162.09;2089456;28;46405;-53
2023/12/07 04:18:54;;;;;;;;;20.75;20.75;;;;;10.01;100.00;101176.22;2089199;28;46051;-52
2023/12/07 04:19:54;;;;;;;;;23.00;23.00;;;;;10.00;100.00;101183.31;2089312;28;46595;-55
2023/12/07 04:20:55;;;;;;;;;24.00;21.00;;;;;10.03;100.00;101195.63;2089427;28;46817;-51
2023/12/07 04:21:55;;;;;;;;;22.00;20.75;;;;;10.04;100.00;101200.06;2089006;28;45594;-52
2023/12/07 04:22:55;;;;;;;;;24.25;22.25;;;;;10.03;100.00;101212.41;2089834;28;46583;-49
2023/12/07 04:23:55;;;;;;;;;23.50;22.50;;;;;10.03;100.00;101203.59;2087730;28;46444;-53
2023/12/07 04:24:56;;;;;;;;;22.50;21.25;;;;;10.01;100.00;101211.56;2088242;28;46732;-54
2023/12/07 04:25:56;;;;;;;;;21.25;21.25;;;;;10.01;100.00;101202.72;2082208;28;46260;-54
2023/12/07 04:26:57;;;;;;;;;23.75;18.25;;;;;10.02;100.00;101205.38;2089458;28;45785;-52
2023/12/07 04:27:57;;;;;;;;;18.75;16.25;;;;;10.03;100.00;101203.59;2089595;28;46358;-54
2023/12/07 04:28:57;;;;;;;;;20.50;19.25;;;;;10.03;100.00;101208.88;2097482;28;46812;-52
2023/12/07 04:29:57;;;;;;;;;20.75;20.25;;;;;10.05;100.00;101203.59;2095397;28;46499;-54
2023/12/07 04:30:58;;;;;;;;;21.25;20.50;;;;;10.05;100.00;101196.53;2089434;28;46160;-50
2023/12/07 04:31:58;;;;;;;;;21.00;21.00;;;;;10.06;100.00;101197.41;2088720;28;46264;-54
2023/12/07 04:32:58;;;;;;;;;23.75;21.25;;;;;10.06;100.00;101187.66;2089261;28;46732;-52
2023/12/07 04:33:59;;;;;;;;;23.50;23.00;;;;;10.07;100.00;101192.06;2088057;28;46987;-53